Time;durP1;ratioP1;P1;durP2;ratioP2;P2;SDS_P1;SDS_P2;PMS_P1;PMS_P2;Temp;Humidity;BMP_temperature;BMP_pressure;BME280_temperature;BME280_humidity;BME280_pressure;Samples;Min_cycle;Max_cycle;Signal;HPM_P1;HPM_P2
2023/05/21 00:00:12;;;;;;;12.73;9.13;;;13.50;99.90;;;;;;5097216;28;20628;-46
2023/05/21 00:02:38;;;;;;;13.67;9.70;;;13.50;99.90;;;;;;5096846;28;20207;-44
2023/05/21 00:05:05;;;;;;;12.27;9.43;;;13.50;99.90;;;;;;5097074;28;20175;-44
2023/05/21 00:07:32;;;;;;;12.77;9.70;;;13.40;99.90;;;;;;5096468;28;20232;-44
2023/05/21 00:09:57;;;;;;;11.73;9.30;;;13.30;99.90;;;;;;5096631;28;20211;-43
2023/05/21 00:12:23;;;;;;;15.50;9.47;;;13.30;99.90;;;;;;5096727;28;20537;-44
2023/05/21 00:14:49;;;;;;;11.40;9.17;;;13.20;99.90;;;;;;5096384;28;20179;-45
2023/05/21 00:17:14;;;;;;;13.40;9.90;;;13.20;99.90;;;;;;5096802;28;20175;-44
2023/05/21 00:19:40;;;;;;;11.80;9.23;;;13.20;99.90;;;;;;5096294;28;20232;-44
2023/05/21 00:22:06;;;;;;;15.10;10.33;;;13.10;99.90;;;;;;5096325;28;20186;-44
2023/05/21 00:24:31;;;;;;;11.50;8.80;;;13.10;99.90;;;;;;5096118;28;20296;-41
2023/05/21 00:26:57;;;;;;;11.43;9.03;;;13.00;99.90;;;;;;5111947;28;20614;-45
2023/05/21 00:29:22;;;;;;;15.47;10.13;;;13.00;99.90;;;;;;5096518;28;20291;-44
2023/05/21 00:31:49;;;;;;;12.07;9.40;;;12.90;99.90;;;;;;5096363;28;20183;-44
2023/05/21 00:34:15;;;;;;;14.97;10.93;;;12.90;99.90;;;;;;5094869;28;20221;-42
2023/05/21 00:36:44;;;;;;;15.53;9.70;;;12.90;99.90;;;;;;5096033;28;20670;-44
2023/05/21 00:39:10;;;;;;;13.53;9.93;;;12.80;99.90;;;;;;5111772;28;20198;-44
2023/05/21 00:41:38;;;;;;;13.23;9.83;;;12.80;99.90;;;;;;5094925;28;20177;-42
2023/05/21 00:44:08;;;;;;;9.87;8.57;;;12.80;99.90;;;;;;5096096;28;20190;-43
2023/05/21 00:46:34;;;;;;;12.43;9.83;;;12.80;99.90;;;;;;5095945;28;20173;-44
2023/05/21 00:49:00;;;;;;;12.90;9.93;;;12.80;99.90;;;;;;5094643;28;20678;-43
2023/05/21 00:51:29;;;;;;;11.20;9.27;;;12.80;99.90;;;;;;5095358;28;20186;-44
2023/05/21 00:53:55;;;;;;;13.93;10.07;;;12.80;99.90;;;;;;5099684;28;20195;-43
2023/05/21 00:56:23;;;;;;;14.43;10.00;;;12.80;99.90;;;;;;5100602;28;20540;-44
2023/05/21 00:58:53;;;;;;;17.90;10.90;;;12.80;99.90;;;;;;5096517;28;20173;-47
2023/05/21 01:01:19;;;;;;;13.23;10.37;;;12.80;99.90;;;;;;5095769;28;20185;-46
2023/05/21 01:03:47;;;;;;;14.10;10.70;;;12.70;99.90;;;;;;5094191;28;20195;-44
2023/05/21 01:06:13;;;;;;;15.17;10.47;;;12.70;99.90;;;;;;5095445;28;20174;-45
2023/05/21 01:08:40;;;;;;;15.13;10.57;;;12.70;99.90;;;;;;5095218;28;20202;-47
2023/05/21 01:11:07;;;;;;;13.97;10.40;;;12.70;99.90;;;;;;5095387;28;20183;-46
2023/05/21 01:13:36;;;;;;;13.20;10.03;;;12.60;99.90;;;;;;5095630;28;20187;-46
2023/05/21 01:16:03;;;;;;;13.27;10.03;;;12.60;99.90;;;;;;5095818;28;20227;-43
2023/05/21 01:18:28;;;;;;;17.37;10.30;;;12.60;99.90;;;;;;5095447;28;20213;-45
2023/05/21 01:20:54;;;;;;;16.97;10.30;;;12.60;99.90;;;;;;5095122;28;20209;-44
2023/05/21 01:23:20;;;;;;;13.83;9.97;;;12.50;99.90;;;;;;5095377;28;20282;-45
2023/05/21 01:25:46;;;;;;;16.70;11.20;;;12.50;99.90;;;;;;5095178;28;20179;-43
2023/05/21 01:28:12;;;;;;;13.07;9.83;;;12.60;99.90;;;;;;5095112;28;20202;-43
2023/05/21 01:30:40;;;;;;;13.17;10.23;;;12.60;99.90;;;;;;5095199;28;20182;-43
2023/05/21 01:33:14;;;;;;;13.13;9.97;;;12.60;99.90;;;;;;5094931;28;20612;-43
2023/05/21 01:35:46;;;;;;;12.67;9.77;;;12.50;99.90;;;;;;5093595;28;20156;-43
2023/05/21 01:38:21;;;;;;;15.33;9.20;;;12.60;99.90;;;;;;5094795;28;20571;-46
2023/05/21 01:40:57;;;;;;;13.10;10.13;;;12.60;99.90;;;;;;5094635;28;20194;-45
2023/05/21 01:43:25;;;;;;;14.67;10.80;;;12.50;99.90;;;;;;5093376;28;20194;-45
2023/05/21 01:45:54;;;;;;;14.80;10.13;;;12.50;99.90;;;;;;5094606;28;20175;-43
2023/05/21 01:48:22;;;;;;;13.67;10.43;;;12.60;99.90;;;;;;5094535;28;20178;-46
2023/05/21 01:50:49;;;;;;;15.37;10.20;;;12.60;99.90;;;;;;5094452;28;20186;-44
2023/05/21 01:53:16;;;;;;;17.67;10.53;;;12.60;99.90;;;;;;5094517;28;20186;-47
2023/05/21 01:55:42;;;;;;;15.70;10.67;;;12.60;99.90;;;;;;5094518;28;20252;-45
2023/05/21 01:58:08;;;;;;;13.63;10.03;;;12.60;99.90;;;;;;5094640;28;20163;-44
2023/05/21 02:00:34;;;;;;;16.70;10.60;;;12.60;99.90;;;;;;5094308;28;20175;-44
2023/05/21 02:03:00;;;;;;;15.50;10.47;;;12.60;99.90;;;;;;5095146;28;20205;-43
2023/05/21 02:05:26;;;;;;;13.87;10.60;;;12.60;99.90;;;;;;5094260;28;20643;-46
2023/05/21 02:07:51;;;;;;;12.10;10.40;;;12.60;99.90;;;;;;5094466;28;20171;-43
2023/05/21 02:10:17;;;;;;;16.03;11.17;;;12.60;99.90;;;;;;5094124;28;20207;-44
2023/05/21 02:12:43;;;;;;;14.83;10.97;;;12.60;99.90;;;;;;5094432;28;20278;-45
2023/05/21 02:15:09;;;;;;;13.23;10.20;;;12.60;99.90;;;;;;5094108;28;20254;-43
2023/05/21 02:17:37;;;;;;;15.07;10.97;;;12.60;99.90;;;;;;5094206;28;20182;-46
2023/05/21 02:20:10;;;;;;;16.37;11.37;;;12.60;99.90;;;;;;5093621;28;20167;-46
2023/05/21 02:22:44;;;;;;;14.33;10.60;;;12.60;99.90;;;;;;5092643;28;20366;-45
2023/05/21 02:25:11;;;;;;;12.67;10.17;;;12.60;99.90;;;;;;5094146;28;20202;-44
2023/05/21 02:27:38;;;;;;;13.30;9.90;;;12.60;99.90;;;;;;5094240;28;20236;-43
2023/05/21 02:30:06;;;;;;;14.23;10.30;;;12.70;99.90;;;;;;5093824;28;20285;-42
2023/05/21 02:32:33;;;;;;;13.13;9.23;;;12.60;99.90;;;;;;5092433;28;20179;-43
2023/05/21 02:35:00;;;;;;;18.63;10.20;;;12.70;99.90;;;;;;5094051;28;20567;-45
2023/05/21 02:37:26;;;;;;;13.20;9.80;;;12.60;99.90;;;;;;5093861;28;20179;-44
2023/05/21 02:39:55;;;;;;;14.93;10.70;;;12.60;99.90;;;;;;5093587;28;20278;-44
2023/05/21 02:42:25;;;;;;;16.30;9.93;;;12.60;99.90;;;;;;5093634;28;20639;-45
2023/05/21 02:44:51;;;;;;;14.70;10.40;;;12.60;99.90;;;;;;5092349;28;20174;-44
2023/05/21 02:47:18;;;;;;;11.90;10.00;;;12.60;99.90;;;;;;5093847;28;20184;-42
2023/05/21 02:49:44;;;;;;;13.43;10.20;;;12.60;99.90;;;;;;5093741;28;20215;-44
2023/05/21 02:52:10;;;;;;;16.07;10.30;;;12.50;99.90;;;;;;5093802;28;20167;-43
2023/05/21 02:54:35;;;;;;;14.17;10.90;;;12.50;99.90;;;;;;5093412;28;20206;-45
2023/05/21 02:57:01;;;;;;;14.00;10.23;;;12.50;99.90;;;;;;5093489;28;20200;-44
2023/05/21 02:59:26;;;;;;;12.47;10.27;;;12.50;99.90;;;;;;5093503;28;20197;-45
2023/05/21 03:01:52;;;;;;;15.00;10.57;;;12.40;99.90;;;;;;5093794;28;20181;-44
2023/05/21 03:04:20;;;;;;;15.03;10.10;;;12.40;99.90;;;;;;5093376;28;20226;-44
2023/05/21 03:06:46;;;;;;;13.97;9.50;;;12.40;99.90;;;;;;5093697;28;20662;-45
2023/05/21 03:09:12;;;;;;;15.63;9.43;;;12.40;99.90;;;;;;5093533;28;20608;-42
2023/05/21 03:11:37;;;;;;;14.57;10.43;;;12.40;99.90;;;;;;5093559;28;20232;-42
2023/05/21 03:14:03;;;;;;;13.07;9.43;;;12.40;99.90;;;;;;5093451;28;20195;-43
2023/05/21 03:16:33;;;;;;;12.27;9.10;;;12.40;99.90;;;;;;5093520;28;20175;-45
2023/05/21 03:18:59;;;;;;;11.93;8.70;;;12.40;99.90;;;;;;5093348;28;20179;-43
2023/05/21 03:21:24;;;;;;;13.63;9.70;;;12.30;99.90;;;;;;5093570;28;20316;-44
2023/05/21 03:23:51;;;;;;;11.50;9.07;;;12.30;99.90;;;;;;5093242;28;20268;-44
2023/05/21 03:26:17;;;;;;;13.47;9.80;;;12.30;99.90;;;;;;5093149;28;20222;-42
2023/05/21 03:28:42;;;;;;;13.07;9.50;;;12.30;99.90;;;;;;5093119;28;20228;-43
2023/05/21 03:31:08;;;;;;;12.07;8.83;;;12.30;99.90;;;;;;5096115;28;20175;-45
2023/05/21 03:33:34;;;;;;;13.20;9.33;;;12.30;99.90;;;;;;5097229;28;20723;-44
2023/05/21 03:35:59;;;;;;;11.27;8.67;;;12.30;99.90;;;;;;5097406;28;20174;-45
2023/05/21 03:38:25;;;;;;;12.33;8.77;;;12.30;99.90;;;;;;5097266;28;20199;-44
2023/05/21 03:40:50;;;;;;;11.50;7.93;;;12.30;99.90;;;;;;5096959;28;20647;-44
2023/05/21 03:43:17;;;;;;;12.87;8.60;;;12.30;99.90;;;;;;5097114;28;20242;-43
2023/05/21 03:45:43;;;;;;;13.80;8.77;;;12.30;99.90;;;;;;5096938;28;20677;-44
2023/05/21 03:48:08;;;;;;;12.10;9.20;;;12.30;99.90;;;;;;5096920;28;20175;-44
2023/05/21 03:50:34;;;;;;;14.77;9.20;;;12.30;99.90;;;;;;5097291;28;20571;-44
2023/05/21 03:52:59;;;;;;;11.83;8.90;;;12.30;99.90;;;;;;5096832;28;20222;-45
2023/05/21 03:55:25;;;;;;;12.27;9.43;;;12.30;99.90;;;;;;5097183;28;20175;-43
2023/05/21 03:57:50;;;;;;;12.43;8.90;;;12.30;99.90;;;;;;5097193;28;20183;-44
2023/05/21 04:00:16;;;;;;;13.17;8.83;;;12.30;99.90;;;;;;5096988;28;20209;-44
2023/05/21 04:02:42;;;;;;;9.97;8.47;;;12.30;99.90;;;;;;5096778;28;20564;-44
2023/05/21 04:05:08;;;;;;;12.73;8.97;;;12.30;99.90;;;;;;5097168;28;20179;-41
2023/05/21 04:07:33;;;;;;;13.37;8.73;;;12.30;99.90;;;;;;5097891;28;20179;-45
2023/05/21 04:09:59;;;;;;;12.33;8.60;;;12.30;99.90;;;;;;5097529;28;20277;-45
2023/05/21 04:12:25;;;;;;;12.70;9.40;;;12.30;99.90;;;;;;5098346;28;20217;-45
2023/05/21 04:14:50;;;;;;;11.60;8.63;;;12.40;99.90;;;;;;5103167;28;20174;-44
2023/05/21 04:17:17;;;;;;;10.40;8.60;;;12.40;99.90;;;;;;5100216;28;20182;-44
2023/05/21 04:19:43;;;;;;;11.53;8.90;;;12.40;99.90;;;;;;5096325;28;20187;-42
2023/05/21 04:22:10;;;;;;;10.83;8.37;;;12.40;99.90;;;;;;5096240;28;20185;-41
2023/05/21 04:24:36;;;;;;;11.23;8.03;;;12.40;99.90;;;;;;5096210;28;20194;-42
2023/05/21 04:27:02;;;;;;;10.43;8.73;;;12.40;99.90;;;;;;5095247;28;20208;-43
2023/05/21 04:29:28;;;;;;;11.00;8.50;;;12.40;99.90;;;;;;5096398;28;20234;-44
2023/05/21 04:31:54;;;;;;;11.70;8.57;;;12.40;99.90;;;;;;5096450;28;20178;-44
2023/05/21 04:34:20;;;;;;;12.47;8.50;;;12.50;99.90;;;;;;5096141;28;20655;-42
2023/05/21 04:36:46;;;;;;;10.53;8.33;;;12.50;99.90;;;;;;5095930;28;20171;-44
2023/05/21 04:39:13;;;;;;;10.43;8.30;;;12.50;99.90;;;;;;5095976;28;20228;-43
2023/05/21 04:41:39;;;;;;;13.60;8.57;;;12.50;99.90;;;;;;5095109;28;20171;-44
2023/05/21 04:44:08;;;;;;;13.13;8.60;;;12.50;99.90;;;;;;5095833;28;20273;-44
2023/05/21 04:46:33;;;;;;;11.87;8.77;;;12.50;99.90;;;;;;5096128;28;20594;-44
2023/05/21 04:49:02;;;;;;;11.17;8.37;;;12.50;99.90;;;;;;5095702;28;20205;-43
2023/05/21 04:51:31;;;;;;;12.53;8.67;;;12.50;99.90;;;;;;5095803;28;20171;-44
2023/05/21 04:53:57;;;;;;;10.50;8.53;;;12.50;99.90;;;;;;5095889;28;20194;-45
2023/05/21 04:56:26;;;;;;;13.00;8.17;;;12.60;99.90;;;;;;5095939;28;20182;-43
2023/05/21 04:58:54;;;;;;;11.23;8.40;;;12.60;99.90;;;;;;5095484;28;20179;-43
2023/05/21 05:01:25;;;;;;;10.43;8.10;;;12.60;99.90;;;;;;5096294;28;20182;-43
2023/05/21 05:03:52;;;;;;;10.93;8.17;;;12.70;99.90;;;;;;5095937;28;20535;-41
2023/05/21 05:06:17;;;;;;;12.87;8.63;;;12.70;99.90;;;;;;5095311;28;20700;-42
2023/05/21 05:08:45;;;;;;;11.47;8.10;;;12.70;99.90;;;;;;5094136;28;20293;-44
2023/05/21 05:11:11;;;;;;;11.10;7.83;;;12.70;99.90;;;;;;5095655;28;20210;-42
2023/05/21 05:13:37;;;;;;;13.23;7.90;;;12.70;99.90;;;;;;5095529;28;20187;-44
2023/05/21 05:16:03;;;;;;;13.87;8.00;;;12.80;99.90;;;;;;5095246;28;20167;-45
2023/05/21 05:18:28;;;;;;;15.17;8.47;;;12.80;99.90;;;;;;5095123;28;20163;-42
2023/05/21 05:20:54;;;;;;;10.20;7.90;;;12.80;99.90;;;;;;5095067;28;20182;-44
2023/05/21 05:23:19;;;;;;;12.77;8.50;;;12.80;99.90;;;;;;5095249;28;20273;-43
2023/05/21 05:25:45;;;;;;;10.17;7.93;;;12.90;99.90;;;;;;5095304;28;20265;-44
2023/05/21 05:28:11;;;;;;;11.60;7.80;;;12.90;99.90;;;;;;5095326;28;20178;-46
2023/05/21 05:30:36;;;;;;;12.33;8.03;;;12.90;99.90;;;;;;5095351;28;20202;-44
2023/05/21 05:33:02;;;;;;;10.70;7.67;;;12.90;99.90;;;;;;5095073;28;20534;-44
2023/05/21 05:35:27;;;;;;;9.07;7.63;;;12.90;99.90;;;;;;5094934;28;20194;-42
2023/05/21 05:37:53;;;;;;;10.40;8.07;;;13.00;99.90;;;;;;5095094;28;20182;-43
2023/05/21 05:40:18;;;;;;;14.47;8.13;;;13.00;99.90;;;;;;5094779;28;20190;-45
2023/05/21 05:42:45;;;;;;;10.70;8.07;;;13.00;99.90;;;;;;5095016;28;20210;-46
2023/05/21 05:45:11;;;;;;;12.23;7.63;;;13.10;99.90;;;;;;5093545;28;20274;-44
2023/05/21 05:47:36;;;;;;;11.30;8.20;;;13.10;99.90;;;;;;5095016;28;20259;-44
2023/05/21 05:50:02;;;;;;;10.27;8.67;;;13.10;99.90;;;;;;5094507;28;20281;-42
2023/05/21 05:52:28;;;;;;;13.77;8.43;;;13.20;99.90;;;;;;5094240;28;20224;-43
2023/05/21 05:54:53;;;;;;;9.77;7.93;;;13.20;99.90;;;;;;5094759;28;20179;-44
2023/05/21 05:57:19;;;;;;;10.90;8.27;;;13.20;99.90;;;;;;5094428;28;20171;-43
2023/05/21 05:59:45;;;;;;;11.07;8.20;;;13.30;99.90;;;;;;5094576;28;20175;-44
2023/05/21 06:02:10;;;;;;;11.10;7.90;;;13.30;99.90;;;;;;5094641;28;20228;-43
2023/05/21 06:04:36;;;;;;;11.07;8.27;;;13.40;99.90;;;;;;5094454;28;20251;-41
2023/05/21 06:07:01;;;;;;;11.20;7.57;;;13.40;99.90;;;;;;5094205;28;20174;-45
2023/05/21 06:09:27;;;;;;;11.50;8.47;;;13.40;99.90;;;;;;5092935;28;20202;-43
2023/05/21 06:11:53;;;;;;;12.50;8.70;;;13.50;99.90;;;;;;5094356;28;20179;-45
2023/05/21 06:14:18;;;;;;;10.77;8.03;;;13.60;99.90;;;;;;5094304;28;20186;-45
2023/05/21 06:16:44;;;;;;;11.10;8.53;;;13.60;99.90;;;;;;5092877;28;20227;-44
2023/05/21 06:19:10;;;;;;;12.63;8.53;;;13.70;99.90;;;;;;5094018;28;20198;-45
2023/05/21 06:21:35;;;;;;;11.23;7.93;;;13.70;99.90;;;;;;5094671;28;20505;-45
2023/05/21 06:24:01;;;;;;;11.03;7.70;;;13.70;99.90;;;;;;5094184;28;20218;-44
2023/05/21 06:26:26;;;;;;;11.90;8.77;;;13.80;99.90;;;;;;5094020;28;20178;-45
2023/05/21 06:28:52;;;;;;;10.37;7.83;;;13.90;99.90;;;;;;5094335;28;20210;-44
2023/05/21 06:31:21;;;;;;;9.37;7.97;;;13.90;99.90;;;;;;5094196;28;20654;-44
2023/05/21 06:33:48;;;;;;;11.20;8.60;;;14.00;99.90;;;;;;5094217;28;20207;-45
2023/05/21 06:36:14;;;;;;;11.90;8.90;;;14.00;99.90;;;;;;5094123;28;20175;-46
2023/05/21 06:38:39;;;;;;;12.27;9.23;;;14.10;99.90;;;;;;5093837;28;20270;-45
2023/05/21 06:41:05;;;;;;;11.13;8.27;;;14.20;99.90;;;;;;5094152;28;20198;-47
2023/05/21 06:43:31;;;;;;;11.70;8.33;;;14.30;99.90;;;;;;5093900;28;20650;-44
2023/05/21 06:45:56;;;;;;;11.30;7.93;;;14.40;99.90;;;;;;5093939;28;20183;-45
2023/05/21 06:48:22;;;;;;;12.50;7.67;;;14.60;99.90;;;;;;5093835;28;20186;-45
2023/05/21 06:50:47;;;;;;;11.80;8.43;;;14.80;99.90;;;;;;5093893;28;20167;-45
2023/05/21 06:53:15;;;;;;;11.63;7.97;;;14.90;99.90;;;;;;5093911;28;20199;-46
2023/05/21 06:55:43;;;;;;;11.47;8.33;;;15.10;99.90;;;;;;5093592;28;20167;-46
2023/05/21 06:58:12;;;;;;;9.77;7.87;;;15.20;99.90;;;;;;5093641;28;20308;-45
2023/05/21 07:00:38;;;;;;;9.73;6.97;;;15.30;99.90;;;;;;5093495;28;20179;-44
2023/05/21 07:03:03;;;;;;;10.83;8.33;;;15.30;99.90;;;;;;5093484;28;20555;-45
2023/05/21 07:05:29;;;;;;;9.13;7.87;;;15.30;99.90;;;;;;5092840;28;20178;-46
2023/05/21 07:07:55;;;;;;;9.53;7.67;;;15.40;99.90;;;;;;5093733;28;20262;-43
2023/05/21 07:10:20;;;;;;;9.10;7.23;;;15.50;99.90;;;;;;5093599;28;20290;-44
2023/05/21 07:12:46;;;;;;;10.83;7.73;;;15.50;99.90;;;;;;5093576;28;20659;-43
2023/05/21 07:15:12;;;;;;;10.37;7.47;;;15.60;99.90;;;;;;5093662;28;20186;-45
2023/05/21 07:17:37;;;;;;;11.10;8.00;;;15.70;99.90;;;;;;5093884;28;20274;-44
2023/05/21 07:20:10;;;;;;;10.23;8.20;;;15.80;99.90;;;;;;5093878;28;20586;-45
2023/05/21 07:22:37;;;;;;;11.03;7.47;;;15.80;99.90;;;;;;5093570;28;20167;-42
2023/05/21 07:25:04;;;;;;;11.63;7.87;;;15.80;99.90;;;;;;5093345;28;20655;-45
2023/05/21 07:27:29;;;;;;;9.57;7.13;;;15.90;99.90;;;;;;5093291;28;20253;-45
2023/05/21 07:29:55;;;;;;;11.60;8.20;;;15.90;99.90;;;;;;5093289;28;20626;-45
2023/05/21 07:32:20;;;;;;;11.50;7.93;;;16.00;99.90;;;;;;5093265;28;20175;-44
2023/05/21 07:34:46;;;;;;;10.97;8.10;;;16.00;99.90;;;;;;5093592;28;20203;-45
2023/05/21 07:37:12;;;;;;;9.10;7.60;;;16.10;99.90;;;;;;5094912;28;20516;-45
2023/05/21 07:39:38;;;;;;;10.23;8.33;;;16.10;99.90;;;;;;5097755;28;20222;-43
2023/05/21 07:42:04;;;;;;;10.20;7.37;;;16.20;99.90;;;;;;5096352;28;20659;-42
2023/05/21 07:44:30;;;;;;;10.40;7.80;;;16.20;99.90;;;;;;5093066;28;20694;-44
2023/05/21 07:46:56;;;;;;;8.73;7.07;;;16.30;99.90;;;;;;5093269;28;20185;-44
2023/05/21 07:49:22;;;;;;;10.27;7.63;;;16.30;99.90;;;;;;5093350;28;20198;-45
2023/05/21 07:51:48;;;;;;;9.23;7.43;;;16.50;99.90;;;;;;5093388;28;20639;-45
2023/05/21 07:54:14;;;;;;;10.30;7.30;;;16.60;99.90;;;;;;5093062;28;20194;-45
2023/05/21 07:56:40;;;;;;;8.30;6.93;;;16.70;99.90;;;;;;5093079;28;20171;-47
2023/05/21 07:59:05;;;;;;;9.83;7.80;;;16.70;99.90;;;;;;5093229;28;20261;-42
2023/05/21 08:01:31;;;;;;;8.43;7.53;;;16.80;99.90;;;;;;5093407;28;20210;-47
2023/05/21 08:03:59;;;;;;;12.50;8.03;;;16.90;99.90;;;;;;5093181;28;20259;-45
2023/05/21 08:06:25;;;;;;;11.10;8.30;;;17.00;99.90;;;;;;5093316;28;20179;-45
2023/05/21 08:08:53;;;;;;;11.07;7.47;;;17.10;99.90;;;;;;5092958;28;20281;-45
2023/05/21 08:11:18;;;;;;;8.77;7.87;;;17.10;99.90;;;;;;5093212;28;20171;-44
2023/05/21 08:13:44;;;;;;;11.17;8.27;;;17.20;99.90;;;;;;5092773;28;20278;-45
2023/05/21 08:16:10;;;;;;;11.90;8.50;;;17.20;99.90;;;;;;5093225;28;20545;-45
2023/05/21 08:18:35;;;;;;;9.90;7.57;;;17.30;99.90;;;;;;5096263;28;20174;-46
2023/05/21 08:21:01;;;;;;;10.60;7.10;;;17.40;99.90;;;;;;5096422;28;20220;-45
2023/05/21 08:23:26;;;;;;;12.07;8.30;;;17.50;99.90;;;;;;5095137;28;20195;-45
2023/05/21 08:25:52;;;;;;;11.20;8.03;;;17.60;99.90;;;;;;5096334;28;20167;-46
2023/05/21 08:28:20;;;;;;;8.77;7.70;;;17.70;99.90;;;;;;5096729;28;20628;-47
2023/05/21 08:30:46;;;;;;;12.50;7.60;;;17.70;99.90;;;;;;5096450;28;20255;-45
2023/05/21 08:33:12;;;;;;;9.67;7.63;;;17.80;99.90;;;;;;5096011;28;20714;-48
2023/05/21 08:35:38;;;;;;;10.73;8.07;;;17.80;99.90;;;;;;5096285;28;20200;-46
2023/05/21 08:38:04;;;;;;;8.73;7.67;;;17.80;99.90;;;;;;5096397;28;20721;-46
2023/05/21 08:40:30;;;;;;;11.40;8.37;;;17.90;99.90;;;;;;5095915;28;20194;-45
2023/05/21 08:42:55;;;;;;;11.43;8.57;;;18.00;99.90;;;;;;5095792;28;20674;-47
2023/05/21 08:45:22;;;;;;;11.23;8.23;;;18.00;99.90;;;;;;5096147;28;20179;-46
2023/05/21 08:47:57;;;;;;;10.37;8.70;;;18.10;99.90;;;;;;5096143;28;20530;-45
2023/05/21 08:50:26;;;;;;;8.90;8.00;;;18.10;99.90;;;;;;5095761;28;20265;-45
2023/05/21 08:52:54;;;;;;;10.50;8.83;;;18.00;99.90;;;;;;5095691;28;20189;-45
2023/05/21 08:55:20;;;;;;;11.83;9.33;;;18.10;99.90;;;;;;5096035;28;20576;-44
2023/05/21 08:57:46;;;;;;;9.80;8.40;;;18.10;99.90;;;;;;5095667;28;20183;-47
2023/05/21 09:00:13;;;;;;;10.97;8.20;;;18.10;99.90;;;;;;5095692;28;20174;-46
2023/05/21 09:02:43;;;;;;;12.70;9.20;;;18.20;99.90;;;;;;5096054;28;20731;-48
2023/05/21 09:05:10;;;;;;;11.60;9.10;;;18.30;99.90;;;;;;5095523;28;20174;-48
2023/05/21 09:07:46;;;;;;;15.87;9.23;;;18.40;99.90;;;;;;5095503;28;20167;-46
2023/05/21 09:10:13;;;;;;;13.33;9.27;;;18.60;99.90;;;;;;5096289;28;20517;-46
2023/05/21 09:12:39;;;;;;;13.07;9.43;;;18.60;99.90;;;;;;5095333;28;20183;-45
2023/05/21 09:15:05;;;;;;;13.00;9.27;;;18.80;99.90;;;;;;5096285;28;20182;-46
2023/05/21 09:17:31;;;;;;;11.33;9.47;;;18.80;99.90;;;;;;5095658;28;20503;-45
2023/05/21 09:20:08;;;;;;;12.30;9.63;;;18.80;99.90;;;;;;5095517;28;20269;-46
2023/05/21 09:22:35;;;;;;;13.07;8.97;;;18.90;99.90;;;;;;5095411;28;20182;-46
2023/05/21 09:25:03;;;;;;;9.67;8.13;;;19.10;99.90;;;;;;5095075;28;20182;-45
2023/05/21 09:27:29;;;;;;;10.33;8.67;;;19.10;99.90;;;;;;5095281;28;20167;-46
2023/05/21 09:29:54;;;;;;;11.17;8.67;;;19.30;99.90;;;;;;5095209;28;20213;-47
2023/05/21 09:32:20;;;;;;;11.30;8.73;;;19.40;99.90;;;;;;5095222;28;20230;-45
2023/05/21 09:34:47;;;;;;;13.53;10.23;;;19.50;99.90;;;;;;5095096;28;20282;-45
2023/05/21 09:37:12;;;;;;;12.00;8.70;;;19.60;99.90;;;;;;5095183;28;20167;-46
2023/05/21 09:39:39;;;;;;;10.67;8.90;;;19.70;99.90;;;;;;5094790;28;20198;-47
2023/05/21 09:42:05;;;;;;;11.13;9.00;;;19.80;99.90;;;;;;5094877;28;20774;-47
2023/05/21 09:44:31;;;;;;;11.03;8.40;;;19.80;99.90;;;;;;5094989;28;20203;-46
2023/05/21 09:46:58;;;;;;;11.43;10.07;;;19.70;99.90;;;;;;5094972;28;20639;-46
2023/05/21 09:49:25;;;;;;;9.67;8.27;;;19.80;99.90;;;;;;5093357;28;20198;-47
2023/05/21 09:51:54;;;;;;;14.60;9.67;;;19.80;99.90;;;;;;5094960;28;20246;-46
2023/05/21 09:54:21;;;;;;;11.13;9.57;;;19.80;99.90;;;;;;5094501;28;20196;-47
2023/05/21 09:56:47;;;;;;;13.07;9.87;;;19.70;99.90;;;;;;5093255;28;20715;-46
2023/05/21 09:59:12;;;;;;;11.87;8.97;;;19.80;99.90;;;;;;5094560;28;20266;-47
2023/05/21 10:01:38;;;;;;;10.20;8.67;;;19.70;99.90;;;;;;5094696;28;20265;-45
2023/05/21 10:04:06;;;;;;;14.33;9.60;;;19.70;99.90;;;;;;5094399;28;20293;-47
2023/05/21 10:06:36;;;;;;;14.93;10.00;;;19.70;99.90;;;;;;5094559;28;20262;-47
2023/05/21 10:09:09;;;;;;;12.60;9.97;;;19.70;99.90;;;;;;5094778;28;20203;-47
2023/05/21 10:11:35;;;;;;;13.40;10.33;;;19.60;99.90;;;;;;5094829;28;20219;-45
2023/05/21 10:14:16;;;;;;;13.73;9.47;;;19.60;99.90;;;;;;5094501;28;20670;-45
2023/05/21 10:16:42;;;;;;;13.63;9.50;;;19.60;99.90;;;;;;5094540;28;20626;-46
2023/05/21 10:19:09;;;;;;;13.00;9.90;;;19.60;99.90;;;;;;5094522;28;20183;-47
2023/05/21 10:21:35;;;;;;;12.50;9.50;;;19.60;99.90;;;;;;5094221;28;20182;-46
2023/05/21 10:24:03;;;;;;;12.77;10.17;;;19.60;99.90;;;;;;5094172;28;20650;-45
2023/05/21 10:26:29;;;;;;;18.03;10.87;;;19.40;99.90;;;;;;5094136;28;20264;-47
2023/05/21 10:28:58;;;;;;;13.30;10.70;;;19.30;99.90;;;;;;5093953;28;20209;-46
2023/05/21 10:31:25;;;;;;;12.70;10.07;;;19.40;99.90;;;;;;5094221;28;20210;-47
2023/05/21 10:33:52;;;;;;;12.63;10.33;;;19.40;99.90;;;;;;5094157;28;20207;-47
2023/05/21 10:36:19;;;;;;;12.33;9.97;;;19.50;99.90;;;;;;5093896;28;20253;-46
2023/05/21 10:38:46;;;;;;;13.73;10.53;;;19.60;99.90;;;;;;5093826;28;20167;-47
2023/05/21 10:41:14;;;;;;;11.63;10.20;;;19.60;99.90;;;;;;5093249;28;20209;-47
2023/05/21 10:44:07;;;;;;;12.67;11.33;;;19.60;99.90;;;;;;5093973;28;20203;-48
2023/05/21 10:46:41;;;;;;;12.87;10.13;;;19.60;99.90;;;;;;5094068;28;20252;-47
2023/05/21 10:49:43;;;;;;;13.00;10.73;;;19.60;99.90;;;;;;5093934;28;20199;-52
2023/05/21 10:52:27;;;;;;;14.40;11.27;;;19.70;99.90;;;;;;5093747;28;20236;-51
2023/05/21 10:54:58;;;;;;;12.40;11.10;;;19.90;99.90;;;;;;5093682;28;20163;-51
2023/05/21 10:57:52;;;;;;;15.47;11.00;;;19.90;99.90;;;;;;5093860;28;20250;-51
2023/05/21 11:00:19;;;;;;;13.13;10.93;;;20.00;99.90;;;;;;5093878;28;20171;-51
2023/05/21 11:02:47;;;;;;;15.43;11.50;;;20.00;99.90;;;;;;5093362;28;20205;-52
2023/05/21 11:05:13;;;;;;;14.50;11.17;;;20.10;99.90;;;;;;5093459;28;20271;-51
2023/05/21 11:07:55;;;;;;;12.20;10.90;;;20.20;99.90;;;;;;5093693;28;20212;-51
2023/05/21 11:10:36;;;;;;;15.13;12.03;;;20.40;99.90;;;;;;5093917;28;20203;-51
2023/05/21 11:13:11;;;;;;;12.97;11.53;;;20.60;99.90;;;;;;5093638;28;20199;-51
2023/05/21 11:16:04;;;;;;;14.27;11.43;;;20.70;99.90;;;;;;5093368;28;20205;-51
2023/05/21 11:18:36;;;;;;;14.30;12.80;;;20.80;99.90;;;;;;5093343;28;20187;-50
2023/05/21 11:21:09;;;;;;;14.90;11.57;;;20.80;99.90;;;;;;5093610;28;20183;-53
2023/05/21 11:23:55;;;;;;;16.23;13.07;;;20.80;99.90;;;;;;5093439;28;20206;-51
2023/05/21 11:26:26;;;;;;;13.90;12.07;;;20.90;99.90;;;;;;5093769;28;20212;-51
2023/05/21 11:29:03;;;;;;;15.23;12.60;;;21.00;99.90;;;;;;5093181;28;20644;-52
2023/05/21 11:31:37;;;;;;;14.63;11.90;;;21.10;99.90;;;;;;5093164;28;20182;-53
2023/05/21 11:34:28;;;;;;;12.63;11.27;;;21.10;99.90;;;;;;5093382;28;20199;-50
2023/05/21 11:37:30;;;;;;;14.07;12.40;;;21.20;99.90;;;;;;5093205;28;20152;-51
2023/05/21 11:40:17;;;;;;;16.10;12.43;;;21.40;99.90;;;;;;5093092;28;20228;-50
2023/05/21 11:42:48;;;;;;;14.60;12.33;;;21.50;99.90;;;;;;5092953;28;20213;-50
2023/05/21 11:45:17;;;;;;;15.80;13.10;;;21.50;99.90;;;;;;5093410;28;20172;-50
2023/05/21 11:47:43;;;;;;;16.50;13.80;;;21.50;99.90;;;;;;5092993;28;20194;-50
2023/05/21 11:50:13;;;;;;;16.23;13.47;;;21.60;99.90;;;;;;5093307;28;20214;-51
2023/05/21 11:52:40;;;;;;;15.43;13.07;;;21.70;99.90;;;;;;5097178;28;20202;-51
2023/05/21 11:55:07;;;;;;;13.73;12.23;;;21.70;99.90;;;;;;5098539;28;20647;-49
2023/05/21 11:57:33;;;;;;;15.37;12.10;;;21.90;99.90;;;;;;5097852;28;20190;-50
2023/05/21 12:00:01;;;;;;;14.53;12.97;;;21.90;99.90;;;;;;5097761;28;20171;-49
2023/05/21 12:02:30;;;;;;;15.93;13.10;;;21.80;99.90;;;;;;5096673;28;20179;-50
2023/05/21 12:04:58;;;;;;;15.33;12.73;;;22.00;99.90;;;;;;5096712;28;20179;-50
2023/05/21 12:07:29;;;;;;;13.33;12.00;;;22.00;99.90;;;;;;5096942;28;20187;-51
2023/05/21 12:09:56;;;;;;;14.40;12.63;;;22.10;99.90;;;;;;5097331;28;20191;-51
2023/05/21 12:12:25;;;;;;;13.43;12.07;;;22.00;99.90;;;;;;5096386;28;20167;-50
2023/05/21 12:14:53;;;;;;;14.47;11.57;;;22.00;99.90;;;;;;5096752;28;20179;-51
2023/05/21 12:17:24;;;;;;;13.70;11.67;;;22.10;99.90;;;;;;5096705;28;20661;-51
2023/05/21 12:19:52;;;;;;;14.27;11.93;;;22.10;99.90;;;;;;5096383;28;20192;-50
2023/05/21 12:22:18;;;;;;;13.77;12.20;;;22.10;99.90;;;;;;5096297;28;20182;-50
2023/05/21 12:24:44;;;;;;;15.83;12.33;;;22.30;99.90;;;;;;5096558;28;20210;-50
2023/05/21 12:27:12;;;;;;;15.70;12.63;;;22.40;99.90;;;;;;5096150;28;20183;-50
2023/05/21 12:29:45;;;;;;;13.87;12.13;;;22.40;99.90;;;;;;5096124;28;20195;-50
2023/05/21 12:32:12;;;;;;;15.23;11.83;;;22.50;99.90;;;;;;5096705;28;20156;-50
2023/05/21 12:34:44;;;;;;;14.13;12.10;;;22.70;99.90;;;;;;5095913;28;20278;-49